sensor_id;sensor_type;location;lat;lon;timestamp;P1;durP1;ratioP1;P2;durP2;ratioP2
59512;SDS011;45330;51.634;5.562;2022-11-10T00:00:28;21.98;;;3.67;;
59512;SDS011;45330;51.634;5.562;2022-11-10T00:02:54;14.15;;;3.42;;
59512;SDS011;45330;51.634;5.562;2022-11-10T00:05:19;21.38;;;4.32;;
59512;SDS011;45330;51.634;5.562;2022-11-10T00:07:45;19.33;;;3.65;;
59512;SDS011;45330;51.634;5.562;2022-11-10T00:10:11;17.63;;;3.80;;
59512;SDS011;45330;51.634;5.562;2022-11-10T00:12:36;19.00;;;3.65;;
59512;SDS011;45330;51.634;5.562;2022-11-10T00:15:05;16.30;;;4.18;;
59512;SDS011;45330;51.634;5.562;2022-11-10T00:17:49;22.20;;;4.45;;
59512;SDS011;45330;51.634;5.562;2022-11-10T00:20:15;23.90;;;4.00;;
59512;SDS011;45330;51.634;5.562;2022-11-10T00:22:40;22.88;;;4.68;;
59512;SDS011;45330;51.634;5.562;2022-11-10T00:25:06;21.42;;;4.18;;
59512;SDS011;45330;51.634;5.562;2022-11-10T00:27:32;19.65;;;4.45;;
59512;SDS011;45330;51.634;5.562;2022-11-10T00:29:57;20.13;;;3.72;;
59512;SDS011;45330;51.634;5.562;2022-11-10T00:32:23;20.13;;;4.40;;
59512;SDS011;45330;51.634;5.562;2022-11-10T00:34:48;22.90;;;4.20;;
59512;SDS011;45330;51.634;5.562;2022-11-10T00:37:13;21.52;;;3.80;;
59512;SDS011;45330;51.634;5.562;2022-11-10T00:39:39;21.35;;;4.43;;
59512;SDS011;45330;51.634;5.562;2022-11-10T00:42:04;20.48;;;4.45;;
59512;SDS011;45330;51.634;5.562;2022-11-10T00:44:30;21.70;;;4.35;;
59512;SDS011;45330;51.634;5.562;2022-11-10T00:46:56;25.50;;;4.20;;
59512;SDS011;45330;51.634;5.562;2022-11-10T00:49:21;22.95;;;4.13;;
59512;SDS011;45330;51.634;5.562;2022-11-10T00:51:46;21.65;;;4.25;;
59512;SDS011;45330;51.634;5.562;2022-11-10T00:54:12;23.50;;;4.18;;
59512;SDS011;45330;51.634;5.562;2022-11-10T00:56:37;22.77;;;4.47;;
59512;SDS011;45330;51.634;5.562;2022-11-10T00:59:02;20.08;;;4.78;;
59512;SDS011;45330;51.634;5.562;2022-11-10T01:01:28;20.92;;;4.28;;
59512;SDS011;45330;51.634;5.562;2022-11-10T01:03:53;18.60;;;3.95;;
59512;SDS011;45330;51.634;5.562;2022-11-10T01:06:19;19.77;;;4.15;;
59512;SDS011;45330;51.634;5.562;2022-11-10T01:08:46;18.23;;;4.28;;
59512;SDS011;45330;51.634;5.562;2022-11-10T01:11:13;20.67;;;4.25;;
59512;SDS011;45330;51.634;5.562;2022-11-10T01:13:45;23.02;;;4.45;;
59512;SDS011;45330;51.634;5.562;2022-11-10T01:18:41;20.73;;;4.33;;
59512;SDS011;45330;51.634;5.562;2022-11-10T01:21:07;20.52;;;4.70;;
59512;SDS011;45330;51.634;5.562;2022-11-10T01:23:33;21.77;;;4.70;;
59512;SDS011;45330;51.634;5.562;2022-11-10T01:26:00;24.17;;;4.90;;
59512;SDS011;45330;51.634;5.562;2022-11-10T01:28:27;20.23;;;4.18;;
59512;SDS011;45330;51.634;5.562;2022-11-10T01:30:59;25.98;;;4.53;;
59512;SDS011;45330;51.634;5.562;2022-11-10T01:33:26;16.52;;;3.75;;
59512;SDS011;45330;51.634;5.562;2022-11-10T01:35:52;20.33;;;4.50;;
59512;SDS011;45330;51.634;5.562;2022-11-10T01:38:18;20.05;;;4.20;;
59512;SDS011;45330;51.634;5.562;2022-11-10T01:40:43;17.05;;;3.85;;
59512;SDS011;45330;51.634;5.562;2022-11-10T01:43:09;15.85;;;3.85;;
59512;SDS011;45330;51.634;5.562;2022-11-10T01:48:15;22.42;;;5.07;;
59512;SDS011;45330;51.634;5.562;2022-11-10T01:50:43;20.95;;;3.95;;
59512;SDS011;45330;51.634;5.562;2022-11-10T01:53:13;24.05;;;5.07;;
59512;SDS011;45330;51.634;5.562;2022-11-10T01:55:43;18.60;;;4.63;;
59512;SDS011;45330;51.634;5.562;2022-11-10T01:58:11;20.10;;;4.20;;
59512;SDS011;45330;51.634;5.562;2022-11-10T02:00:39;22.77;;;4.85;;
59512;SDS011;45330;51.634;5.562;2022-11-10T02:03:23;19.95;;;4.00;;
59512;SDS011;45330;51.634;5.562;2022-11-10T02:05:56;20.67;;;4.05;;
59512;SDS011;45330;51.634;5.562;2022-11-10T02:08:22;24.75;;;5.10;;
59512;SDS011;45330;51.634;5.562;2022-11-10T02:10:49;28.02;;;4.82;;
59512;SDS011;45330;51.634;5.562;2022-11-10T02:13:14;20.27;;;5.07;;
59512;SDS011;45330;51.634;5.562;2022-11-10T02:15:40;21.05;;;5.38;;
59512;SDS011;45330;51.634;5.562;2022-11-10T02:18:06;23.50;;;4.40;;
59512;SDS011;45330;51.634;5.562;2022-11-10T02:20:31;19.58;;;4.80;;
59512;SDS011;45330;51.634;5.562;2022-11-10T02:22:57;24.27;;;4.45;;
59512;SDS011;45330;51.634;5.562;2022-11-10T02:25:22;24.40;;;4.60;;
59512;SDS011;45330;51.634;5.562;2022-11-10T02:27:51;20.38;;;3.92;;
59512;SDS011;45330;51.634;5.562;2022-11-10T02:30:17;26.65;;;5.07;;
59512;SDS011;45330;51.634;5.562;2022-11-10T02:32:42;27.65;;;6.60;;
59512;SDS011;45330;51.634;5.562;2022-11-10T02:35:08;23.55;;;4.63;;
59512;SDS011;45330;51.634;5.562;2022-11-10T02:37:33;22.25;;;4.53;;
59512;SDS011;45330;51.634;5.562;2022-11-10T02:39:59;24.95;;;4.80;;
59512;SDS011;45330;51.634;5.562;2022-11-10T02:42:24;23.58;;;5.63;;
59512;SDS011;45330;51.634;5.562;2022-11-10T02:44:50;17.75;;;4.00;;
59512;SDS011;45330;51.634;5.562;2022-11-10T02:47:15;27.83;;;5.47;;
59512;SDS011;45330;51.634;5.562;2022-11-10T02:49:40;23.23;;;4.93;;
59512;SDS011;45330;51.634;5.562;2022-11-10T02:52:06;20.70;;;4.50;;
59512;SDS011;45330;51.634;5.562;2022-11-10T02:54:31;24.55;;;4.65;;
59512;SDS011;45330;51.634;5.562;2022-11-10T02:56:56;18.05;;;4.15;;
59512;SDS011;45330;51.634;5.562;2022-11-10T02:59:22;23.15;;;4.35;;
59512;SDS011;45330;51.634;5.562;2022-11-10T03:01:47;18.23;;;4.00;;
59512;SDS011;45330;51.634;5.562;2022-11-10T03:04:12;21.80;;;4.18;;
59512;SDS011;45330;51.634;5.562;2022-11-10T03:06:38;21.02;;;4.47;;
59512;SDS011;45330;51.634;5.562;2022-11-10T03:09:03;24.58;;;4.63;;
59512;SDS011;45330;51.634;5.562;2022-11-10T03:11:29;20.90;;;3.80;;
59512;SDS011;45330;51.634;5.562;2022-11-10T03:13:54;18.08;;;3.90;;
59512;SDS011;45330;51.634;5.562;2022-11-10T03:16:19;25.15;;;4.10;;
59512;SDS011;45330;51.634;5.562;2022-11-10T03:18:44;20.05;;;3.80;;
59512;SDS011;45330;51.634;5.562;2022-11-10T03:21:10;23.23;;;4.43;;
59512;SDS011;45330;51.634;5.562;2022-11-10T03:23:35;21.25;;;4.28;;
59512;SDS011;45330;51.634;5.562;2022-11-10T03:26:04;24.20;;;5.20;;
59512;SDS011;45330;51.634;5.562;2022-11-10T03:28:30;21.17;;;4.20;;
59512;SDS011;45330;51.634;5.562;2022-11-10T03:30:55;22.70;;;4.53;;
59512;SDS011;45330;51.634;5.562;2022-11-10T03:33:21;23.48;;;4.53;;
59512;SDS011;45330;51.634;5.562;2022-11-10T03:35:46;21.05;;;4.38;;
59512;SDS011;45330;51.634;5.562;2022-11-10T03:38:11;32.08;;;5.45;;
59512;SDS011;45330;51.634;5.562;2022-11-10T03:40:37;19.50;;;4.00;;
59512;SDS011;45330;51.634;5.562;2022-11-10T03:43:02;22.65;;;4.25;;
59512;SDS011;45330;51.634;5.562;2022-11-10T03:45:28;23.52;;;4.65;;
59512;SDS011;45330;51.634;5.562;2022-11-10T03:47:53;28.77;;;5.10;;
59512;SDS011;45330;51.634;5.562;2022-11-10T03:50:18;23.48;;;4.55;;
59512;SDS011;45330;51.634;5.562;2022-11-10T03:52:44;28.15;;;4.85;;
59512;SDS011;45330;51.634;5.562;2022-11-10T03:55:11;25.35;;;4.15;;
59512;SDS011;45330;51.634;5.562;2022-11-10T03:57:38;24.15;;;4.90;;
59512;SDS011;45330;51.634;5.562;2022-11-10T04:00:04;20.15;;;4.15;;
59512;SDS011;45330;51.634;5.562;2022-11-10T04:02:30;23.40;;;4.20;;
59512;SDS011;45330;51.634;5.562;2022-11-10T04:04:55;20.92;;;4.15;;
59512;SDS011;45330;51.634;5.562;2022-11-10T04:07:43;21.30;;;4.07;;
59512;SDS011;45330;51.634;5.562;2022-11-10T04:10:28;25.63;;;5.15;;
59512;SDS011;45330;51.634;5.562;2022-11-10T04:12:53;21.13;;;4.20;;
59512;SDS011;45330;51.634;5.562;2022-11-10T04:15:37;22.75;;;4.50;;
59512;SDS011;45330;51.634;5.562;2022-11-10T04:20:54;23.40;;;4.63;;
59512;SDS011;45330;51.634;5.562;2022-11-10T04:23:21;24.05;;;4.47;;
59512;SDS011;45330;51.634;5.562;2022-11-10T04:26:13;22.77;;;4.35;;
59512;SDS011;45330;51.634;5.562;2022-11-10T04:29:04;20.25;;;4.60;;
59512;SDS011;45330;51.634;5.562;2022-11-10T04:31:33;23.88;;;4.25;;
59512;SDS011;45330;51.634;5.562;2022-11-10T04:34:01;22.75;;;4.35;;
59512;SDS011;45330;51.634;5.562;2022-11-10T04:36:28;22.92;;;4.60;;
59512;SDS011;45330;51.634;5.562;2022-11-10T04:38:55;22.48;;;4.57;;
59512;SDS011;45330;51.634;5.562;2022-11-10T04:41:21;21.27;;;4.60;;
59512;SDS011;45330;51.634;5.562;2022-11-10T04:43:48;23.20;;;4.35;;
59512;SDS011;45330;51.634;5.562;2022-11-10T04:48:48;26.70;;;4.88;;
59512;SDS011;45330;51.634;5.562;2022-11-10T04:51:15;24.35;;;4.70;;
59512;SDS011;45330;51.634;5.562;2022-11-10T04:53:41;26.15;;;5.43;;
59512;SDS011;45330;51.634;5.562;2022-11-10T04:56:09;25.42;;;5.00;;
59512;SDS011;45330;51.634;5.562;2022-11-10T04:58:38;22.52;;;4.95;;
59512;SDS011;45330;51.634;5.562;2022-11-10T05:01:04;23.15;;;4.57;;
59512;SDS011;45330;51.634;5.562;2022-11-10T05:03:29;19.27;;;4.40;;
59512;SDS011;45330;51.634;5.562;2022-11-10T05:05:54;23.55;;;4.30;;
59512;SDS011;45330;51.634;5.562;2022-11-10T05:08:20;22.10;;;5.03;;
59512;SDS011;45330;51.634;5.562;2022-11-10T05:10:45;35.92;;;5.10;;
59512;SDS011;45330;51.634;5.562;2022-11-10T05:13:10;24.33;;;4.78;;
59512;SDS011;45330;51.634;5.562;2022-11-10T05:15:36;24.70;;;5.03;;
59512;SDS011;45330;51.634;5.562;2022-11-10T05:18:03;22.33;;;4.78;;
59512;SDS011;45330;51.634;5.562;2022-11-10T05:20:29;23.00;;;4.60;;
59512;SDS011;45330;51.634;5.562;2022-11-10T05:22:54;25.40;;;4.60;;
59512;SDS011;45330;51.634;5.562;2022-11-10T05:25:39;25.92;;;5.35;;
59512;SDS011;45330;51.634;5.562;2022-11-10T05:28:06;22.85;;;4.82;;
59512;SDS011;45330;51.634;5.562;2022-11-10T05:30:33;23.42;;;4.60;;
59512;SDS011;45330;51.634;5.562;2022-11-10T05:32:59;20.70;;;4.88;;
59512;SDS011;45330;51.634;5.562;2022-11-10T05:35:25;25.55;;;4.63;;
59512;SDS011;45330;51.634;5.562;2022-11-10T05:37:50;24.23;;;4.90;;
59512;SDS011;45330;51.634;5.562;2022-11-10T05:40:16;21.63;;;4.80;;
59512;SDS011;45330;51.634;5.562;2022-11-10T05:42:45;21.50;;;4.68;;
59512;SDS011;45330;51.634;5.562;2022-11-10T05:45:13;26.10;;;5.87;;
59512;SDS011;45330;51.634;5.562;2022-11-10T05:47:39;24.35;;;4.85;;
59512;SDS011;45330;51.634;5.562;2022-11-10T05:50:04;22.42;;;4.88;;
59512;SDS011;45330;51.634;5.562;2022-11-10T05:52:31;19.17;;;4.90;;
59512;SDS011;45330;51.634;5.562;2022-11-10T05:54:56;23.40;;;5.05;;
59512;SDS011;45330;51.634;5.562;2022-11-10T05:57:22;24.98;;;5.43;;
59512;SDS011;45330;51.634;5.562;2022-11-10T05:59:48;23.13;;;5.05;;
59512;SDS011;45330;51.634;5.562;2022-11-10T06:02:13;25.35;;;5.38;;
59512;SDS011;45330;51.634;5.562;2022-11-10T06:04:38;26.10;;;5.10;;
59512;SDS011;45330;51.634;5.562;2022-11-10T06:07:04;26.50;;;4.93;;
59512;SDS011;45330;51.634;5.562;2022-11-10T06:09:31;24.70;;;5.22;;
59512;SDS011;45330;51.634;5.562;2022-11-10T06:11:57;21.38;;;4.60;;
59512;SDS011;45330;51.634;5.562;2022-11-10T06:14:23;27.92;;;5.10;;
59512;SDS011;45330;51.634;5.562;2022-11-10T06:16:48;25.30;;;5.40;;
59512;SDS011;45330;51.634;5.562;2022-11-10T06:19:13;23.55;;;4.93;;
59512;SDS011;45330;51.634;5.562;2022-11-10T06:21:39;25.08;;;5.60;;
59512;SDS011;45330;51.634;5.562;2022-11-10T06:24:04;23.52;;;5.15;;
59512;SDS011;45330;51.634;5.562;2022-11-10T06:26:30;29.92;;;6.03;;
59512;SDS011;45330;51.634;5.562;2022-11-10T06:28:55;23.08;;;5.28;;
59512;SDS011;45330;51.634;5.562;2022-11-10T06:31:21;27.77;;;4.95;;
59512;SDS011;45330;51.634;5.562;2022-11-10T06:33:47;23.73;;;4.60;;
59512;SDS011;45330;51.634;5.562;2022-11-10T06:36:13;26.45;;;5.93;;
59512;SDS011;45330;51.634;5.562;2022-11-10T06:38:39;28.67;;;5.15;;
59512;SDS011;45330;51.634;5.562;2022-11-10T06:41:05;23.48;;;4.90;;
59512;SDS011;45330;51.634;5.562;2022-11-10T06:43:30;28.02;;;6.22;;
59512;SDS011;45330;51.634;5.562;2022-11-10T06:45:55;24.58;;;5.30;;
59512;SDS011;45330;51.634;5.562;2022-11-10T06:48:21;26.50;;;5.53;;
59512;SDS011;45330;51.634;5.562;2022-11-10T06:50:46;29.05;;;5.43;;
59512;SDS011;45330;51.634;5.562;2022-11-10T06:53:12;26.40;;;5.10;;
59512;SDS011;45330;51.634;5.562;2022-11-10T06:55:38;26.75;;;5.75;;
59512;SDS011;45330;51.634;5.562;2022-11-10T06:58:03;23.13;;;5.32;;
59512;SDS011;45330;51.634;5.562;2022-11-10T07:00:29;21.65;;;4.78;;
59512;SDS011;45330;51.634;5.562;2022-11-10T07:03:01;21.80;;;5.15;;
59512;SDS011;45330;51.634;5.562;2022-11-10T07:05:28;23.88;;;5.07;;
59512;SDS011;45330;51.634;5.562;2022-11-10T07:07:54;24.55;;;4.60;;
59512;SDS011;45330;51.634;5.562;2022-11-10T07:10:19;25.20;;;5.32;;
59512;SDS011;45330;51.634;5.562;2022-11-10T07:12:44;21.30;;;5.20;;
59512;SDS011;45330;51.634;5.562;2022-11-10T07:15:10;26.20;;;5.63;;
59512;SDS011;45330;51.634;5.562;2022-11-10T07:17:39;24.45;;;5.05;;
59512;SDS011;45330;51.634;5.562;2022-11-10T07:20:05;22.02;;;5.03;;
59512;SDS011;45330;51.634;5.562;2022-11-10T07:22:31;24.48;;;5.18;;
59512;SDS011;45330;51.634;5.562;2022-11-10T07:24:56;24.65;;;5.65;;
59512;SDS011;45330;51.634;5.562;2022-11-10T07:27:22;29.52;;;5.57;;
59512;SDS011;45330;51.634;5.562;2022-11-10T07:29:47;23.40;;;5.10;;
59512;SDS011;45330;51.634;5.562;2022-11-10T07:32:12;25.55;;;5.65;;
59512;SDS011;45330;51.634;5.562;2022-11-10T07:34:38;28.65;;;5.20;;
59512;SDS011;45330;51.634;5.562;2022-11-10T07:37:04;26.77;;;5.32;;
59512;SDS011;45330;51.634;5.562;2022-11-10T07:39:30;24.17;;;5.63;;
59512;SDS011;45330;51.634;5.562;2022-11-10T07:41:55;26.92;;;5.40;;
59512;SDS011;45330;51.634;5.562;2022-11-10T07:44:21;26.92;;;5.68;;
59512;SDS011;45330;51.634;5.562;2022-11-10T07:46:47;27.85;;;5.05;;
59512;SDS011;45330;51.634;5.562;2022-11-10T07:49:12;23.25;;;5.32;;
59512;SDS011;45330;51.634;5.562;2022-11-10T07:51:38;22.30;;;5.05;;
59512;SDS011;45330;51.634;5.562;2022-11-10T07:54:03;23.42;;;4.90;;
59512;SDS011;45330;51.634;5.562;2022-11-10T07:56:29;29.23;;;6.03;;
59512;SDS011;45330;51.634;5.562;2022-11-10T07:58:54;25.92;;;5.00;;
59512;SDS011;45330;51.634;5.562;2022-11-10T08:01:20;26.45;;;4.97;;
59512;SDS011;45330;51.634;5.562;2022-11-10T08:03:45;22.75;;;5.32;;
59512;SDS011;45330;51.634;5.562;2022-11-10T08:06:10;22.90;;;5.03;;
59512;SDS011;45330;51.634;5.562;2022-11-10T08:08:36;23.83;;;5.03;;
59512;SDS011;45330;51.634;5.562;2022-11-10T08:11:01;23.27;;;5.15;;
59512;SDS011;45330;51.634;5.562;2022-11-10T08:13:27;28.08;;;5.80;;
59512;SDS011;45330;51.634;5.562;2022-11-10T08:15:52;24.67;;;4.75;;
59512;SDS011;45330;51.634;5.562;2022-11-10T08:18:19;21.23;;;5.80;;
59512;SDS011;45330;51.634;5.562;2022-11-10T08:20:45;27.70;;;5.38;;
59512;SDS011;45330;51.634;5.562;2022-11-10T08:23:12;22.67;;;5.05;;
59512;SDS011;45330;51.634;5.562;2022-11-10T08:25:38;24.20;;;5.05;;
59512;SDS011;45330;51.634;5.562;2022-11-10T08:28:05;26.20;;;5.45;;
59512;SDS011;45330;51.634;5.562;2022-11-10T08:30:33;22.80;;;5.05;;
59512;SDS011;45330;51.634;5.562;2022-11-10T08:33:00;26.23;;;5.85;;
59512;SDS011;45330;51.634;5.562;2022-11-10T08:35:28;19.63;;;4.35;;
59512;SDS011;45330;51.634;5.562;2022-11-10T08:37:55;27.63;;;6.15;;
59512;SDS011;45330;51.634;5.562;2022-11-10T08:40:20;20.23;;;4.80;;
59512;SDS011;45330;51.634;5.562;2022-11-10T08:42:47;27.42;;;5.00;;
59512;SDS011;45330;51.634;5.562;2022-11-10T08:45:21;30.38;;;6.03;;
59512;SDS011;45330;51.634;5.562;2022-11-10T08:47:46;22.02;;;4.95;;
59512;SDS011;45330;51.634;5.562;2022-11-10T08:50:11;22.13;;;4.88;;
59512;SDS011;45330;51.634;5.562;2022-11-10T08:52:37;24.17;;;4.53;;
59512;SDS011;45330;51.634;5.562;2022-11-10T08:55:02;23.85;;;4.63;;
59512;SDS011;45330;51.634;5.562;2022-11-10T08:57:28;22.08;;;5.00;;
59512;SDS011;45330;51.634;5.562;2022-11-10T08:59:53;23.92;;;5.28;;
59512;SDS011;45330;51.634;5.562;2022-11-10T09:02:19;22.92;;;5.53;;
59512;SDS011;45330;51.634;5.562;2022-11-10T09:04:44;25.70;;;5.45;;
59512;SDS011;45330;51.634;5.562;2022-11-10T09:07:09;27.77;;;5.35;;
59512;SDS011;45330;51.634;5.562;2022-11-10T09:09:35;22.42;;;4.80;;
59512;SDS011;45330;51.634;5.562;2022-11-10T09:12:00;26.40;;;6.38;;
59512;SDS011;45330;51.634;5.562;2022-11-10T09:14:25;20.48;;;5.65;;
59512;SDS011;45330;51.634;5.562;2022-11-10T09:16:51;22.80;;;4.47;;
59512;SDS011;45330;51.634;5.562;2022-11-10T09:19:16;21.55;;;5.93;;
59512;SDS011;45330;51.634;5.562;2022-11-10T09:21:41;24.15;;;4.88;;
59512;SDS011;45330;51.634;5.562;2022-11-10T09:24:07;23.10;;;4.68;;
59512;SDS011;45330;51.634;5.562;2022-11-10T09:26:32;22.95;;;4.47;;
59512;SDS011;45330;51.634;5.562;2022-11-10T09:28:58;21.10;;;4.20;;
59512;SDS011;45330;51.634;5.562;2022-11-10T09:31:23;18.70;;;3.90;;
59512;SDS011;45330;51.634;5.562;2022-11-10T09:33:48;24.38;;;4.63;;
59512;SDS011;45330;51.634;5.562;2022-11-10T09:36:14;17.58;;;4.40;;
59512;SDS011;45330;51.634;5.562;2022-11-10T09:38:39;20.15;;;4.20;;
59512;SDS011;45330;51.634;5.562;2022-11-10T09:41:05;20.83;;;4.00;;
59512;SDS011;45330;51.634;5.562;2022-11-10T09:43:47;22.42;;;3.97;;
59512;SDS011;45330;51.634;5.562;2022-11-10T09:46:29;20.05;;;3.97;;
59512;SDS011;45330;51.634;5.562;2022-11-10T09:49:24;27.95;;;4.65;;
59512;SDS011;45330;51.634;5.562;2022-11-10T09:52:08;20.63;;;4.07;;
59512;SDS011;45330;51.634;5.562;2022-11-10T09:54:44;24.70;;;5.15;;
59512;SDS011;45330;51.634;5.562;2022-11-10T09:57:16;23.58;;;4.88;;
59512;SDS011;45330;51.634;5.562;2022-11-10T10:10:17;23.58;;;3.92;;
59512;SDS011;45330;51.634;5.562;2022-11-10T10:12:59;22.50;;;4.05;;
59512;SDS011;45330;51.634;5.562;2022-11-10T10:15:58;20.23;;;4.20;;
59512;SDS011;45330;51.634;5.562;2022-11-10T10:18:52;18.77;;;4.20;;
59512;SDS011;45330;51.634;5.562;2022-11-10T10:24:08;20.73;;;4.10;;
59512;SDS011;45330;51.634;5.562;2022-11-10T10:26:38;22.08;;;4.15;;
59512;SDS011;45330;51.634;5.562;2022-11-10T10:29:15;23.85;;;4.07;;
59512;SDS011;45330;51.634;5.562;2022-11-10T10:31:49;19.38;;;3.95;;
59512;SDS011;45330;51.634;5.562;2022-11-10T10:34:17;22.60;;;3.75;;
59512;SDS011;45330;51.634;5.562;2022-11-10T10:36:45;19.55;;;4.70;;
59512;SDS011;45330;51.634;5.562;2022-11-10T10:39:12;21.70;;;4.35;;
59512;SDS011;45330;51.634;5.562;2022-11-10T10:41:41;19.02;;;4.38;;
59512;SDS011;45330;51.634;5.562;2022-11-10T10:44:16;20.55;;;4.20;;
59512;SDS011;45330;51.634;5.562;2022-11-10T10:46:54;21.23;;;3.55;;
59512;SDS011;45330;51.634;5.562;2022-11-10T10:49:23;17.63;;;3.42;;
59512;SDS011;45330;51.634;5.562;2022-11-10T10:52:03;19.65;;;3.30;;
59512;SDS011;45330;51.634;5.562;2022-11-10T10:54:30;23.25;;;3.85;;
59512;SDS011;45330;51.634;5.562;2022-11-10T10:57:00;20.27;;;3.87;;
59512;SDS011;45330;51.634;5.562;2022-11-10T10:59:28;20.08;;;3.42;;
59512;SDS011;45330;51.634;5.562;2022-11-10T11:01:53;19.85;;;3.78;;
59512;SDS011;45330;51.634;5.562;2022-11-10T11:07:05;21.92;;;4.45;;
59512;SDS011;45330;51.634;5.562;2022-11-10T11:09:45;20.20;;;4.07;;
59512;SDS011;45330;51.634;5.562;2022-11-10T11:12:12;21.33;;;3.55;;
59512;SDS011;45330;51.634;5.562;2022-11-10T11:14:50;18.50;;;3.63;;
59512;SDS011;45330;51.634;5.562;2022-11-10T11:17:20;16.73;;;3.50;;
59512;SDS011;45330;51.634;5.562;2022-11-10T11:19:47;21.83;;;4.47;;
59512;SDS011;45330;51.634;5.562;2022-11-10T11:30:55;16.40;;;3.08;;
59512;SDS011;45330;51.634;5.562;2022-11-10T11:34:11;19.55;;;3.50;;
59512;SDS011;45330;51.634;5.562;2022-11-10T11:39:06;14.38;;;2.78;;
59512;SDS011;45330;51.634;5.562;2022-11-10T11:50:31;16.88;;;3.38;;
59512;SDS011;45330;51.634;5.562;2022-11-10T11:53:31;16.92;;;3.05;;
59512;SDS011;45330;51.634;5.562;2022-11-10T11:58:57;19.52;;;3.25;;
59512;SDS011;45330;51.634;5.562;2022-11-10T12:15:43;11.93;;;2.60;;
59512;SDS011;45330;51.634;5.562;2022-11-10T12:26:23;16.40;;;3.10;;
59512;SDS011;45330;51.634;5.562;2022-11-10T12:31:49;17.65;;;2.70;;
59512;SDS011;45330;51.634;5.562;2022-11-10T12:37:00;15.68;;;2.80;;
59512;SDS011;45330;51.634;5.562;2022-11-10T12:42:04;14.57;;;3.00;;
59512;SDS011;45330;51.634;5.562;2022-11-10T12:47:21;14.95;;;2.63;;
59512;SDS011;45330;51.634;5.562;2022-11-10T12:54:59;13.95;;;3.58;;
59512;SDS011;45330;51.634;5.562;2022-11-10T12:57:25;15.45;;;2.92;;
59512;SDS011;45330;51.634;5.562;2022-11-10T12:59:58;11.70;;;2.80;;
59512;SDS011;45330;51.634;5.562;2022-11-10T13:02:29;17.02;;;3.78;;
59512;SDS011;45330;51.634;5.562;2022-11-10T13:07:43;14.80;;;3.00;;
59512;SDS011;45330;51.634;5.562;2022-11-10T13:10:26;11.32;;;2.75;;
59512;SDS011;45330;51.634;5.562;2022-11-10T13:18:10;13.65;;;2.80;;
59512;SDS011;45330;51.634;5.562;2022-11-10T13:20:52;13.18;;;2.60;;
59512;SDS011;45330;51.634;5.562;2022-11-10T13:23:19;19.02;;;2.83;;
59512;SDS011;45330;51.634;5.562;2022-11-10T13:34:10;15.13;;;2.80;;
59512;SDS011;45330;51.634;5.562;2022-11-10T13:36:51;15.43;;;2.85;;
59512;SDS011;45330;51.634;5.562;2022-11-10T13:44:23;15.15;;;2.40;;
59512;SDS011;45330;51.634;5.562;2022-11-10T13:46:58;15.57;;;2.85;;
59512;SDS011;45330;51.634;5.562;2022-11-10T13:52:19;16.48;;;3.05;;
59512;SDS011;45330;51.634;5.562;2022-11-10T13:54:56;9.45;;;2.35;;
59512;SDS011;45330;51.634;5.562;2022-11-10T13:58:09;17.15;;;2.92;;
59512;SDS011;45330;51.634;5.562;2022-11-10T14:07:56;14.73;;;3.00;;
59512;SDS011;45330;51.634;5.562;2022-11-10T14:10:46;12.35;;;2.40;;
59512;SDS011;45330;51.634;5.562;2022-11-10T14:15:55;10.70;;;2.20;;
59512;SDS011;45330;51.634;5.562;2022-11-10T14:18:24;12.52;;;2.45;;
59512;SDS011;45330;51.634;5.562;2022-11-10T14:20:55;15.90;;;2.47;;
59512;SDS011;45330;51.634;5.562;2022-11-10T14:25:59;11.35;;;2.33;;
59512;SDS011;45330;51.634;5.562;2022-11-10T14:28:30;9.57;;;2.50;;
59512;SDS011;45330;51.634;5.562;2022-11-10T14:30:58;17.20;;;2.67;;
59512;SDS011;45330;51.634;5.562;2022-11-10T14:33:24;12.63;;;2.38;;
59512;SDS011;45330;51.634;5.562;2022-11-10T14:35:51;12.05;;;2.30;;
59512;SDS011;45330;51.634;5.562;2022-11-10T14:38:23;12.23;;;2.40;;
59512;SDS011;45330;51.634;5.562;2022-11-10T14:40:52;10.35;;;2.20;;
59512;SDS011;45330;51.634;5.562;2022-11-10T14:43:23;7.33;;;1.90;;
59512;SDS011;45330;51.634;5.562;2022-11-10T14:45:56;14.52;;;2.35;;
59512;SDS011;45330;51.634;5.562;2022-11-10T14:48:23;10.23;;;2.10;;
59512;SDS011;45330;51.634;5.562;2022-11-10T14:50:51;12.00;;;2.20;;
59512;SDS011;45330;51.634;5.562;2022-11-10T14:53:22;8.65;;;1.95;;
59512;SDS011;45330;51.634;5.562;2022-11-10T14:55:54;10.90;;;2.45;;
59512;SDS011;45330;51.634;5.562;2022-11-10T15:01:03;11.20;;;2.33;;
59512;SDS011;45330;51.634;5.562;2022-11-10T15:03:34;11.95;;;2.65;;
59512;SDS011;45330;51.634;5.562;2022-11-10T15:06:03;9.82;;;1.98;;
59512;SDS011;45330;51.634;5.562;2022-11-10T15:08:31;9.25;;;2.03;;
59512;SDS011;45330;51.634;5.562;2022-11-10T15:10:58;12.63;;;2.08;;
59512;SDS011;45330;51.634;5.562;2022-11-10T15:16:37;7.85;;;2.08;;
59512;SDS011;45330;51.634;5.562;2022-11-10T15:18:47;9.57;;;2.50;;
59512;SDS011;45330;51.634;5.562;2022-11-10T15:21:15;12.10;;;2.50;;
59512;SDS011;45330;51.634;5.562;2022-11-10T15:23:43;10.93;;;2.15;;
59512;SDS011;45330;51.634;5.562;2022-11-10T15:26:16;13.80;;;2.58;;
59512;SDS011;45330;51.634;5.562;2022-11-10T15:28:45;12.20;;;2.30;;
59512;SDS011;45330;51.634;5.562;2022-11-10T15:31:12;13.07;;;2.67;;
59512;SDS011;45330;51.634;5.562;2022-11-10T15:33:50;9.40;;;2.42;;
59512;SDS011;45330;51.634;5.562;2022-11-10T15:41:56;10.25;;;2.10;;
59512;SDS011;45330;51.634;5.562;2022-11-10T15:44:25;12.73;;;3.03;;
59512;SDS011;45330;51.634;5.562;2022-11-10T15:46:54;10.80;;;2.13;;
59512;SDS011;45330;51.634;5.562;2022-11-10T15:51:49;11.73;;;2.38;;
59512;SDS011;45330;51.634;5.562;2022-11-10T15:54:35;11.43;;;2.35;;
59512;SDS011;45330;51.634;5.562;2022-11-10T15:57:01;11.38;;;2.40;;
59512;SDS011;45330;51.634;5.562;2022-11-10T15:59:27;11.35;;;2.88;;
59512;SDS011;45330;51.634;5.562;2022-11-10T16:01:53;8.98;;;2.20;;
59512;SDS011;45330;51.634;5.562;2022-11-10T16:04:19;9.02;;;2.30;;
59512;SDS011;45330;51.634;5.562;2022-11-10T16:06:44;12.13;;;2.55;;
59512;SDS011;45330;51.634;5.562;2022-11-10T16:09:10;9.60;;;2.33;;
59512;SDS011;45330;51.634;5.562;2022-11-10T16:11:37;13.23;;;2.60;;
59512;SDS011;45330;51.634;5.562;2022-11-10T16:14:08;9.20;;;2.30;;
59512;SDS011;45330;51.634;5.562;2022-11-10T16:19:03;11.63;;;2.70;;
59512;SDS011;45330;51.634;5.562;2022-11-10T16:21:28;10.30;;;2.60;;
59512;SDS011;45330;51.634;5.562;2022-11-10T16:23:56;11.70;;;2.40;;
59512;SDS011;45330;51.634;5.562;2022-11-10T16:26:23;12.25;;;2.38;;
59512;SDS011;45330;51.634;5.562;2022-11-10T16:28:49;13.88;;;3.03;;
59512;SDS011;45330;51.634;5.562;2022-11-10T16:31:16;12.25;;;2.63;;
59512;SDS011;45330;51.634;5.562;2022-11-10T16:33:43;11.60;;;2.42;;
59512;SDS011;45330;51.634;5.562;2022-11-10T16:36:25;11.25;;;2.58;;
59512;SDS011;45330;51.634;5.562;2022-11-10T16:38:53;12.48;;;2.63;;
59512;SDS011;45330;51.634;5.562;2022-11-10T16:41:19;12.85;;;2.90;;
59512;SDS011;45330;51.634;5.562;2022-11-10T16:43:45;10.07;;;2.72;;
59512;SDS011;45330;51.634;5.562;2022-11-10T16:46:21;13.07;;;3.28;;
59512;SDS011;45330;51.634;5.562;2022-11-10T16:48:49;13.55;;;2.90;;
59512;SDS011;45330;51.634;5.562;2022-11-10T16:51:17;14.80;;;2.90;;
59512;SDS011;45330;51.634;5.562;2022-11-10T16:53:42;11.80;;;2.53;;
59512;SDS011;45330;51.634;5.562;2022-11-10T16:56:12;14.05;;;2.60;;
59512;SDS011;45330;51.634;5.562;2022-11-10T16:58:39;7.45;;;2.60;;
59512;SDS011;45330;51.634;5.562;2022-11-10T17:01:04;12.75;;;2.92;;
59512;SDS011;45330;51.634;5.562;2022-11-10T17:03:36;13.75;;;3.10;;